sensor_id;sensor_type;location;lat;lon;timestamp;P1;durP1;ratioP1;P2;durP2;ratioP2
55800;SDS011;41730;51.960;20.158;2022-09-03T00:00:46;8.10;;;2.80;;
55800;SDS011;41730;51.960;20.158;2022-09-03T00:03:23;5.50;;;3.00;;
55800;SDS011;41730;51.960;20.158;2022-09-03T00:06:04;5.70;;;2.90;;
55800;SDS011;41730;51.960;20.158;2022-09-03T00:08:43;4.30;;;3.00;;
55800;SDS011;41730;51.960;20.158;2022-09-03T00:11:19;7.80;;;2.90;;
55800;SDS011;41730;51.960;20.158;2022-09-03T00:13:56;5.60;;;2.90;;
55800;SDS011;41730;51.960;20.158;2022-09-03T00:16:33;4.70;;;2.90;;
55800;SDS011;41730;51.960;20.158;2022-09-03T00:19:15;4.40;;;2.40;;
55800;SDS011;41730;51.960;20.158;2022-09-03T00:21:51;8.50;;;3.10;;
55800;SDS011;41730;51.960;20.158;2022-09-03T00:24:27;5.90;;;2.70;;
55800;SDS011;41730;51.960;20.158;2022-09-03T00:27:04;6.10;;;2.90;;
55800;SDS011;41730;51.960;20.158;2022-09-03T00:29:43;6.20;;;2.80;;
55800;SDS011;41730;51.960;20.158;2022-09-03T00:32:18;4.60;;;2.90;;
55800;SDS011;41730;51.960;20.158;2022-09-03T00:34:55;5.20;;;3.00;;
55800;SDS011;41730;51.960;20.158;2022-09-03T00:37:31;6.20;;;2.60;;
55800;SDS011;41730;51.960;20.158;2022-09-03T00:40:08;4.50;;;2.90;;
55800;SDS011;41730;51.960;20.158;2022-09-03T00:42:46;4.70;;;2.70;;
55800;SDS011;41730;51.960;20.158;2022-09-03T00:45:30;4.80;;;2.70;;
55800;SDS011;41730;51.960;20.158;2022-09-03T00:48:13;5.00;;;2.50;;
55800;SDS011;41730;51.960;20.158;2022-09-03T00:51:03;5.40;;;2.70;;
55800;SDS011;41730;51.960;20.158;2022-09-03T00:53:48;6.00;;;2.50;;
55800;SDS011;41730;51.960;20.158;2022-09-03T00:56:29;5.30;;;2.70;;
55800;SDS011;41730;51.960;20.158;2022-09-03T00:59:15;8.10;;;3.50;;
55800;SDS011;41730;51.960;20.158;2022-09-03T01:02:00;4.70;;;2.80;;
55800;SDS011;41730;51.960;20.158;2022-09-03T01:04:46;5.30;;;2.90;;
55800;SDS011;41730;51.960;20.158;2022-09-03T01:07:30;5.90;;;2.80;;
55800;SDS011;41730;51.960;20.158;2022-09-03T01:10:13;4.70;;;2.70;;
55800;SDS011;41730;51.960;20.158;2022-09-03T01:15:32;5.70;;;2.90;;
55800;SDS011;41730;51.960;20.158;2022-09-03T01:18:14;5.70;;;3.00;;
55800;SDS011;41730;51.960;20.158;2022-09-03T01:21:01;5.40;;;2.80;;
55800;SDS011;41730;51.960;20.158;2022-09-03T01:24:10;5.40;;;2.70;;
55800;SDS011;41730;51.960;20.158;2022-09-03T01:27:05;5.70;;;2.40;;
55800;SDS011;41730;51.960;20.158;2022-09-03T01:29:48;4.10;;;2.70;;
55800;SDS011;41730;51.960;20.158;2022-09-03T01:32:29;6.90;;;3.00;;
55800;SDS011;41730;51.960;20.158;2022-09-03T01:35:12;7.80;;;3.10;;
55800;SDS011;41730;51.960;20.158;2022-09-03T01:37:59;4.80;;;2.80;;
55800;SDS011;41730;51.960;20.158;2022-09-03T01:40:44;5.20;;;2.80;;
55800;SDS011;41730;51.960;20.158;2022-09-03T01:43:48;4.30;;;2.40;;
55800;SDS011;41730;51.960;20.158;2022-09-03T01:46:28;5.60;;;2.50;;
55800;SDS011;41730;51.960;20.158;2022-09-03T01:49:09;5.90;;;2.80;;
55800;SDS011;41730;51.960;20.158;2022-09-03T01:51:53;6.00;;;3.00;;
55800;SDS011;41730;51.960;20.158;2022-09-03T01:54:43;4.60;;;2.30;;
55800;SDS011;41730;51.960;20.158;2022-09-03T01:57:30;5.70;;;2.80;;
55800;SDS011;41730;51.960;20.158;2022-09-03T02:00:13;5.70;;;2.90;;
55800;SDS011;41730;51.960;20.158;2022-09-03T02:05:20;7.00;;;3.00;;
55800;SDS011;41730;51.960;20.158;2022-09-03T02:07:55;4.60;;;2.40;;
55800;SDS011;41730;51.960;20.158;2022-09-03T02:10:29;6.00;;;3.20;;
55800;SDS011;41730;51.960;20.158;2022-09-03T02:13:05;4.90;;;2.60;;
55800;SDS011;41730;51.960;20.158;2022-09-03T02:15:40;4.90;;;3.10;;
55800;SDS011;41730;51.960;20.158;2022-09-03T02:20:47;5.80;;;3.00;;
55800;SDS011;41730;51.960;20.158;2022-09-03T02:23:21;7.10;;;2.80;;
55800;SDS011;41730;51.960;20.158;2022-09-03T02:25:56;5.00;;;2.90;;
55800;SDS011;41730;51.960;20.158;2022-09-03T02:31:00;8.00;;;3.30;;
55800;SDS011;41730;51.960;20.158;2022-09-03T02:33:34;7.00;;;3.00;;
55800;SDS011;41730;51.960;20.158;2022-09-03T02:36:09;5.30;;;3.10;;
55800;SDS011;41730;51.960;20.158;2022-09-03T02:38:43;5.40;;;3.20;;
55800;SDS011;41730;51.960;20.158;2022-09-03T02:41:16;7.70;;;3.50;;
55800;SDS011;41730;51.960;20.158;2022-09-03T02:43:50;7.80;;;3.40;;
55800;SDS011;41730;51.960;20.158;2022-09-03T02:46:23;5.20;;;3.50;;
55800;SDS011;41730;51.960;20.158;2022-09-03T02:49:03;6.70;;;3.20;;
55800;SDS011;41730;51.960;20.158;2022-09-03T02:51:36;11.50;;;3.50;;
55800;SDS011;41730;51.960;20.158;2022-09-03T02:54:09;6.60;;;3.20;;
55800;SDS011;41730;51.960;20.158;2022-09-03T02:56:47;9.10;;;3.80;;
55800;SDS011;41730;51.960;20.158;2022-09-03T02:59:19;5.70;;;3.40;;
55800;SDS011;41730;51.960;20.158;2022-09-03T03:01:51;6.10;;;3.00;;
55800;SDS011;41730;51.960;20.158;2022-09-03T03:04:22;6.00;;;2.80;;
55800;SDS011;41730;51.960;20.158;2022-09-03T03:06:54;6.70;;;3.70;;
55800;SDS011;41730;51.960;20.158;2022-09-03T03:09:25;6.10;;;3.40;;
55800;SDS011;41730;51.960;20.158;2022-09-03T03:11:57;5.60;;;3.50;;
55800;SDS011;41730;51.960;20.158;2022-09-03T03:14:28;8.10;;;3.50;;
55800;SDS011;41730;51.960;20.158;2022-09-03T03:17:00;7.80;;;3.70;;
55800;SDS011;41730;51.960;20.158;2022-09-03T03:19:31;7.80;;;3.30;;
55800;SDS011;41730;51.960;20.158;2022-09-03T03:22:03;6.20;;;3.70;;
55800;SDS011;41730;51.960;20.158;2022-09-03T03:24:35;8.20;;;4.00;;
55800;SDS011;41730;51.960;20.158;2022-09-03T03:27:06;6.00;;;3.70;;
55800;SDS011;41730;51.960;20.158;2022-09-03T03:29:38;6.80;;;3.60;;
55800;SDS011;41730;51.960;20.158;2022-09-03T03:32:09;8.90;;;3.70;;
55800;SDS011;41730;51.960;20.158;2022-09-03T03:34:41;9.30;;;4.10;;
55800;SDS011;41730;51.960;20.158;2022-09-03T03:37:14;6.00;;;4.10;;
55800;SDS011;41730;51.960;20.158;2022-09-03T03:39:49;9.00;;;3.90;;
55800;SDS011;41730;51.960;20.158;2022-09-03T03:42:24;7.30;;;3.80;;
55800;SDS011;41730;51.960;20.158;2022-09-03T03:45:00;5.40;;;3.40;;
55800;SDS011;41730;51.960;20.158;2022-09-03T03:47:32;5.90;;;3.70;;
55800;SDS011;41730;51.960;20.158;2022-09-03T03:50:05;5.30;;;3.50;;
55800;SDS011;41730;51.960;20.158;2022-09-03T03:52:37;7.20;;;3.90;;
55800;SDS011;41730;51.960;20.158;2022-09-03T03:55:08;9.00;;;4.00;;
55800;SDS011;41730;51.960;20.158;2022-09-03T03:57:43;6.10;;;3.80;;
55800;SDS011;41730;51.960;20.158;2022-09-03T04:00:15;8.50;;;4.00;;
55800;SDS011;41730;51.960;20.158;2022-09-03T04:02:47;8.30;;;4.40;;
55800;SDS011;41730;51.960;20.158;2022-09-03T04:05:19;9.60;;;4.70;;
55800;SDS011;41730;51.960;20.158;2022-09-03T04:07:50;8.60;;;5.00;;
55800;SDS011;41730;51.960;20.158;2022-09-03T04:10:22;8.30;;;5.10;;
55800;SDS011;41730;51.960;20.158;2022-09-03T04:12:54;8.10;;;4.70;;
55800;SDS011;41730;51.960;20.158;2022-09-03T04:15:25;6.60;;;4.20;;
55800;SDS011;41730;51.960;20.158;2022-09-03T04:17:57;10.40;;;4.30;;
55800;SDS011;41730;51.960;20.158;2022-09-03T04:20:29;6.90;;;4.30;;
55800;SDS011;41730;51.960;20.158;2022-09-03T04:23:00;7.00;;;4.20;;
55800;SDS011;41730;51.960;20.158;2022-09-03T04:25:32;7.50;;;4.00;;
55800;SDS011;41730;51.960;20.158;2022-09-03T04:28:03;10.60;;;3.80;;
55800;SDS011;41730;51.960;20.158;2022-09-03T04:30:35;6.90;;;3.90;;
55800;SDS011;41730;51.960;20.158;2022-09-03T04:33:07;7.90;;;3.90;;
55800;SDS011;41730;51.960;20.158;2022-09-03T04:35:43;7.70;;;3.90;;
55800;SDS011;41730;51.960;20.158;2022-09-03T04:38:14;6.70;;;4.60;;
55800;SDS011;41730;51.960;20.158;2022-09-03T04:40:51;6.60;;;4.10;;
55800;SDS011;41730;51.960;20.158;2022-09-03T04:43:23;7.70;;;3.60;;
55800;SDS011;41730;51.960;20.158;2022-09-03T04:45:58;6.70;;;3.60;;
55800;SDS011;41730;51.960;20.158;2022-09-03T04:48:31;6.60;;;3.90;;
55800;SDS011;41730;51.960;20.158;2022-09-03T04:51:05;7.20;;;3.90;;
55800;SDS011;41730;51.960;20.158;2022-09-03T04:53:39;7.10;;;3.80;;
55800;SDS011;41730;51.960;20.158;2022-09-03T04:56:13;5.10;;;3.30;;
55800;SDS011;41730;51.960;20.158;2022-09-03T04:58:46;5.30;;;3.40;;
55800;SDS011;41730;51.960;20.158;2022-09-03T05:01:24;8.70;;;3.90;;
55800;SDS011;41730;51.960;20.158;2022-09-03T05:03:57;8.20;;;3.90;;
55800;SDS011;41730;51.960;20.158;2022-09-03T05:06:29;6.60;;;3.70;;
55800;SDS011;41730;51.960;20.158;2022-09-03T05:09:02;7.10;;;4.10;;
55800;SDS011;41730;51.960;20.158;2022-09-03T05:11:35;9.20;;;5.00;;
55800;SDS011;41730;51.960;20.158;2022-09-03T05:14:07;8.80;;;5.00;;
55800;SDS011;41730;51.960;20.158;2022-09-03T05:16:39;7.80;;;4.00;;
55800;SDS011;41730;51.960;20.158;2022-09-03T05:19:20;10.50;;;4.00;;
55800;SDS011;41730;51.960;20.158;2022-09-03T05:21:52;9.10;;;4.20;;
55800;SDS011;41730;51.960;20.158;2022-09-03T05:24:24;9.10;;;3.90;;
55800;SDS011;41730;51.960;20.158;2022-09-03T05:26:55;6.70;;;4.10;;
55800;SDS011;41730;51.960;20.158;2022-09-03T05:29:27;7.10;;;3.70;;
55800;SDS011;41730;51.960;20.158;2022-09-03T05:31:58;8.30;;;4.60;;
55800;SDS011;41730;51.960;20.158;2022-09-03T05:34:31;11.40;;;7.10;;
55800;SDS011;41730;51.960;20.158;2022-09-03T05:37:02;13.00;;;7.00;;
55800;SDS011;41730;51.960;20.158;2022-09-03T05:39:34;14.00;;;5.90;;
55800;SDS011;41730;51.960;20.158;2022-09-03T05:42:06;11.00;;;5.10;;
55800;SDS011;41730;51.960;20.158;2022-09-03T05:44:40;9.30;;;4.10;;
55800;SDS011;41730;51.960;20.158;2022-09-03T05:47:12;10.80;;;4.60;;
55800;SDS011;41730;51.960;20.158;2022-09-03T05:49:44;6.70;;;3.90;;
55800;SDS011;41730;51.960;20.158;2022-09-03T05:52:15;7.90;;;3.40;;
55800;SDS011;41730;51.960;20.158;2022-09-03T05:54:49;7.70;;;3.80;;
55800;SDS011;41730;51.960;20.158;2022-09-03T05:57:21;8.00;;;3.80;;
55800;SDS011;41730;51.960;20.158;2022-09-03T05:59:53;9.30;;;4.10;;
55800;SDS011;41730;51.960;20.158;2022-09-03T06:02:24;9.50;;;4.80;;
55800;SDS011;41730;51.960;20.158;2022-09-03T06:04:56;8.60;;;4.20;;
55800;SDS011;41730;51.960;20.158;2022-09-03T06:07:28;9.10;;;4.10;;
55800;SDS011;41730;51.960;20.158;2022-09-03T06:10:01;8.70;;;3.90;;
55800;SDS011;41730;51.960;20.158;2022-09-03T06:12:35;8.50;;;4.00;;
55800;SDS011;41730;51.960;20.158;2022-09-03T06:15:09;7.70;;;4.20;;
55800;SDS011;41730;51.960;20.158;2022-09-03T06:17:41;11.00;;;3.90;;
55800;SDS011;41730;51.960;20.158;2022-09-03T06:20:12;5.50;;;3.40;;
55800;SDS011;41730;51.960;20.158;2022-09-03T06:22:48;6.70;;;3.50;;
55800;SDS011;41730;51.960;20.158;2022-09-03T06:25:20;7.50;;;3.50;;
55800;SDS011;41730;51.960;20.158;2022-09-03T06:27:52;5.60;;;3.40;;
55800;SDS011;41730;51.960;20.158;2022-09-03T06:30:24;7.30;;;3.50;;
55800;SDS011;41730;51.960;20.158;2022-09-03T06:32:55;7.90;;;3.10;;
55800;SDS011;41730;51.960;20.158;2022-09-03T06:35:28;6.50;;;3.50;;
55800;SDS011;41730;51.960;20.158;2022-09-03T06:38:11;6.50;;;2.80;;
55800;SDS011;41730;51.960;20.158;2022-09-03T06:40:43;7.40;;;3.30;;
55800;SDS011;41730;51.960;20.158;2022-09-03T06:43:20;6.40;;;3.30;;
55800;SDS011;41730;51.960;20.158;2022-09-03T06:45:57;5.30;;;3.10;;
55800;SDS011;41730;51.960;20.158;2022-09-03T06:48:30;8.30;;;4.30;;
55800;SDS011;41730;51.960;20.158;2022-09-03T06:51:03;5.90;;;2.90;;
55800;SDS011;41730;51.960;20.158;2022-09-03T06:53:38;7.00;;;3.50;;
55800;SDS011;41730;51.960;20.158;2022-09-03T06:56:12;7.60;;;3.30;;
55800;SDS011;41730;51.960;20.158;2022-09-03T06:58:45;6.70;;;3.20;;
55800;SDS011;41730;51.960;20.158;2022-09-03T07:01:18;6.50;;;3.20;;
55800;SDS011;41730;51.960;20.158;2022-09-03T07:03:53;7.20;;;3.40;;
55800;SDS011;41730;51.960;20.158;2022-09-03T07:06:26;6.40;;;2.60;;
55800;SDS011;41730;51.960;20.158;2022-09-03T07:08:59;5.50;;;2.60;;
55800;SDS011;41730;51.960;20.158;2022-09-03T07:11:31;4.90;;;2.80;;
55800;SDS011;41730;51.960;20.158;2022-09-03T07:14:03;4.70;;;2.80;;
55800;SDS011;41730;51.960;20.158;2022-09-03T07:16:35;6.20;;;2.60;;
55800;SDS011;41730;51.960;20.158;2022-09-03T07:19:09;5.80;;;2.50;;
55800;SDS011;41730;51.960;20.158;2022-09-03T07:21:42;5.80;;;3.10;;
55800;SDS011;41730;51.960;20.158;2022-09-03T07:24:17;5.10;;;2.40;;
55800;SDS011;41730;51.960;20.158;2022-09-03T07:26:49;5.60;;;2.30;;
55800;SDS011;41730;51.960;20.158;2022-09-03T07:29:22;5.20;;;2.50;;
55800;SDS011;41730;51.960;20.158;2022-09-03T07:31:54;3.40;;;2.20;;
55800;SDS011;41730;51.960;20.158;2022-09-03T07:34:28;5.10;;;2.40;;
55800;SDS011;41730;51.960;20.158;2022-09-03T07:37:03;4.70;;;2.30;;
55800;SDS011;41730;51.960;20.158;2022-09-03T07:39:35;5.30;;;2.30;;
55800;SDS011;41730;51.960;20.158;2022-09-03T07:42:09;4.80;;;2.10;;
55800;SDS011;41730;51.960;20.158;2022-09-03T07:44:41;5.50;;;2.00;;
55800;SDS011;41730;51.960;20.158;2022-09-03T07:47:13;5.50;;;2.40;;
55800;SDS011;41730;51.960;20.158;2022-09-03T07:49:54;5.60;;;2.80;;
55800;SDS011;41730;51.960;20.158;2022-09-03T07:52:27;4.70;;;2.40;;
55800;SDS011;41730;51.960;20.158;2022-09-03T07:55:00;4.90;;;2.50;;
55800;SDS011;41730;51.960;20.158;2022-09-03T07:57:32;5.40;;;2.20;;
55800;SDS011;41730;51.960;20.158;2022-09-03T08:00:05;4.00;;;2.10;;
55800;SDS011;41730;51.960;20.158;2022-09-03T08:02:39;7.00;;;2.50;;
55800;SDS011;41730;51.960;20.158;2022-09-03T08:05:13;7.50;;;2.30;;
55800;SDS011;41730;51.960;20.158;2022-09-03T08:07:48;4.10;;;2.00;;
55800;SDS011;41730;51.960;20.158;2022-09-03T08:10:21;4.30;;;1.90;;
55800;SDS011;41730;51.960;20.158;2022-09-03T08:12:56;4.20;;;1.90;;
55800;SDS011;41730;51.960;20.158;2022-09-03T08:15:27;4.10;;;1.80;;
55800;SDS011;41730;51.960;20.158;2022-09-03T08:17:59;3.10;;;1.90;;
55800;SDS011;41730;51.960;20.158;2022-09-03T08:20:32;5.90;;;2.20;;
55800;SDS011;41730;51.960;20.158;2022-09-03T08:23:05;4.50;;;2.00;;
55800;SDS011;41730;51.960;20.158;2022-09-03T08:25:37;3.70;;;2.00;;
55800;SDS011;41730;51.960;20.158;2022-09-03T08:28:09;3.20;;;2.00;;
55800;SDS011;41730;51.960;20.158;2022-09-03T08:30:40;4.70;;;2.00;;
55800;SDS011;41730;51.960;20.158;2022-09-03T08:33:12;4.80;;;2.30;;
55800;SDS011;41730;51.960;20.158;2022-09-03T08:35:50;6.80;;;1.90;;
55800;SDS011;41730;51.960;20.158;2022-09-03T08:38:23;4.10;;;1.90;;
55800;SDS011;41730;51.960;20.158;2022-09-03T08:40:55;5.80;;;1.80;;
55800;SDS011;41730;51.960;20.158;2022-09-03T08:43:37;4.70;;;1.80;;
55800;SDS011;41730;51.960;20.158;2022-09-03T08:46:22;4.90;;;2.00;;
55800;SDS011;41730;51.960;20.158;2022-09-03T08:49:02;4.40;;;2.20;;
55800;SDS011;41730;51.960;20.158;2022-09-03T08:51:36;4.00;;;2.10;;
55800;SDS011;41730;51.960;20.158;2022-09-03T08:54:09;4.40;;;2.00;;
55800;SDS011;41730;51.960;20.158;2022-09-03T08:56:43;3.90;;;1.60;;
55800;SDS011;41730;51.960;20.158;2022-09-03T08:59:16;5.40;;;1.60;;
55800;SDS011;41730;51.960;20.158;2022-09-03T09:01:58;3.70;;;1.70;;
55800;SDS011;41730;51.960;20.158;2022-09-03T09:04:42;4.10;;;1.80;;
55800;SDS011;41730;51.960;20.158;2022-09-03T09:07:26;3.10;;;1.60;;
55800;SDS011;41730;51.960;20.158;2022-09-03T09:10:07;3.40;;;1.60;;
55800;SDS011;41730;51.960;20.158;2022-09-03T09:12:44;3.60;;;1.80;;
55800;SDS011;41730;51.960;20.158;2022-09-03T09:15:27;3.70;;;1.40;;
55800;SDS011;41730;51.960;20.158;2022-09-03T09:18:10;2.90;;;1.60;;
55800;SDS011;41730;51.960;20.158;2022-09-03T09:20:47;5.10;;;1.80;;
55800;SDS011;41730;51.960;20.158;2022-09-03T09:23:24;5.00;;;1.60;;
55800;SDS011;41730;51.960;20.158;2022-09-03T09:26:00;4.20;;;1.70;;
55800;SDS011;41730;51.960;20.158;2022-09-03T09:28:35;8.80;;;1.80;;
55800;SDS011;41730;51.960;20.158;2022-09-03T09:31:09;2.60;;;1.30;;
55800;SDS011;41730;51.960;20.158;2022-09-03T09:33:46;4.60;;;1.60;;
55800;SDS011;41730;51.960;20.158;2022-09-03T09:36:19;3.10;;;1.30;;
55800;SDS011;41730;51.960;20.158;2022-09-03T09:38:52;3.40;;;1.50;;
55800;SDS011;41730;51.960;20.158;2022-09-03T09:41:24;5.20;;;1.90;;
55800;SDS011;41730;51.960;20.158;2022-09-03T09:44:00;6.10;;;1.90;;
55800;SDS011;41730;51.960;20.158;2022-09-03T09:46:35;3.30;;;1.70;;
55800;SDS011;41730;51.960;20.158;2022-09-03T09:49:17;2.80;;;1.50;;
55800;SDS011;41730;51.960;20.158;2022-09-03T09:52:01;4.10;;;1.50;;
55800;SDS011;41730;51.960;20.158;2022-09-03T09:54:36;3.30;;;1.70;;
55800;SDS011;41730;51.960;20.158;2022-09-03T09:57:13;5.10;;;1.60;;
55800;SDS011;41730;51.960;20.158;2022-09-03T09:59:46;4.20;;;1.40;;
55800;SDS011;41730;51.960;20.158;2022-09-03T10:02:22;3.20;;;1.40;;
55800;SDS011;41730;51.960;20.158;2022-09-03T10:04:57;2.40;;;1.30;;
55800;SDS011;41730;51.960;20.158;2022-09-03T10:07:41;2.60;;;1.30;;
55800;SDS011;41730;51.960;20.158;2022-09-03T10:10:23;5.50;;;1.60;;
55800;SDS011;41730;51.960;20.158;2022-09-03T10:13:03;2.80;;;1.20;;
55800;SDS011;41730;51.960;20.158;2022-09-03T10:15:40;4.00;;;1.50;;
55800;SDS011;41730;51.960;20.158;2022-09-03T10:18:18;2.40;;;1.10;;
55800;SDS011;41730;51.960;20.158;2022-09-03T10:20:59;2.50;;;1.20;;
55800;SDS011;41730;51.960;20.158;2022-09-03T10:23:38;3.40;;;1.60;;
55800;SDS011;41730;51.960;20.158;2022-09-03T10:26:19;4.10;;;1.30;;
55800;SDS011;41730;51.960;20.158;2022-09-03T10:28:59;2.80;;;1.40;;
55800;SDS011;41730;51.960;20.158;2022-09-03T10:34:33;2.60;;;1.10;;
55800;SDS011;41730;51.960;20.158;2022-09-03T10:37:15;2.40;;;1.20;;
55800;SDS011;41730;51.960;20.158;2022-09-03T10:42:43;4.20;;;1.40;;
55800;SDS011;41730;51.960;20.158;2022-09-03T10:45:21;3.90;;;1.40;;
55800;SDS011;41730;51.960;20.158;2022-09-03T10:48:15;2.60;;;1.40;;
55800;SDS011;41730;51.960;20.158;2022-09-03T10:51:05;3.00;;;1.40;;
55800;SDS011;41730;51.960;20.158;2022-09-03T10:56:44;2.70;;;1.30;;
55800;SDS011;41730;51.960;20.158;2022-09-03T10:59:31;2.50;;;1.10;;
55800;SDS011;41730;51.960;20.158;2022-09-03T11:02:27;2.20;;;1.30;;
55800;SDS011;41730;51.960;20.158;2022-09-03T11:05:12;5.80;;;1.90;;
55800;SDS011;41730;51.960;20.158;2022-09-03T11:07:48;3.90;;;1.20;;
55800;SDS011;41730;51.960;20.158;2022-09-03T11:10:27;3.40;;;1.20;;
55800;SDS011;41730;51.960;20.158;2022-09-03T11:13:02;3.10;;;1.20;;
55800;SDS011;41730;51.960;20.158;2022-09-03T11:15:38;3.50;;;1.30;;
55800;SDS011;41730;51.960;20.158;2022-09-03T11:18:15;2.00;;;1.10;;
55800;SDS011;41730;51.960;20.158;2022-09-03T11:20:53;2.30;;;1.20;;
55800;SDS011;41730;51.960;20.158;2022-09-03T11:23:31;2.70;;;1.20;;
55800;SDS011;41730;51.960;20.158;2022-09-03T11:26:07;2.10;;;1.10;;
55800;SDS011;41730;51.960;20.158;2022-09-03T11:28:42;4.20;;;1.20;;
55800;SDS011;41730;51.960;20.158;2022-09-03T11:31:24;3.30;;;1.40;;
55800;SDS011;41730;51.960;20.158;2022-09-03T11:34:10;2.50;;;1.30;;
55800;SDS011;41730;51.960;20.158;2022-09-03T11:37:06;2.50;;;1.30;;
55800;SDS011;41730;51.960;20.158;2022-09-03T11:39:51;2.40;;;1.30;;
55800;SDS011;41730;51.960;20.158;2022-09-03T11:42:32;3.00;;;1.40;;
55800;SDS011;41730;51.960;20.158;2022-09-03T11:45:33;2.70;;;1.50;;
55800;SDS011;41730;51.960;20.158;2022-09-03T11:51:02;3.70;;;1.30;;
55800;SDS011;41730;51.960;20.158;2022-09-03T11:53:53;4.30;;;1.30;;
55800;SDS011;41730;51.960;20.158;2022-09-03T11:56:27;3.30;;;1.30;;
55800;SDS011;41730;51.960;20.158;2022-09-03T12:01:52;3.40;;;1.90;;
55800;SDS011;41730;51.960;20.158;2022-09-03T12:04:31;3.70;;;1.50;;
55800;SDS011;41730;51.960;20.158;2022-09-03T12:07:19;2.60;;;1.40;;
55800;SDS011;41730;51.960;20.158;2022-09-03T12:10:09;2.40;;;1.40;;
55800;SDS011;41730;51.960;20.158;2022-09-03T12:12:54;3.60;;;1.30;;
55800;SDS011;41730;51.960;20.158;2022-09-03T12:15:44;2.60;;;1.40;;
55800;SDS011;41730;51.960;20.158;2022-09-03T12:18:29;4.00;;;1.30;;
55800;SDS011;41730;51.960;20.158;2022-09-03T12:21:04;3.40;;;1.40;;
55800;SDS011;41730;51.960;20.158;2022-09-03T12:23:41;2.30;;;1.40;;
55800;SDS011;41730;51.960;20.158;2022-09-03T12:26:13;2.40;;;1.40;;
55800;SDS011;41730;51.960;20.158;2022-09-03T12:28:48;2.50;;;1.40;;
55800;SDS011;41730;51.960;20.158;2022-09-03T12:31:22;3.30;;;1.20;;
55800;SDS011;41730;51.960;20.158;2022-09-03T12:33:57;2.30;;;1.10;;
55800;SDS011;41730;51.960;20.158;2022-09-03T12:36:36;2.00;;;1.30;;
55800;SDS011;41730;51.960;20.158;2022-09-03T12:39:10;3.10;;;1.10;;
55800;SDS011;41730;51.960;20.158;2022-09-03T12:41:51;2.70;;;1.10;;
55800;SDS011;41730;51.960;20.158;2022-09-03T12:44:29;3.30;;;1.40;;
55800;SDS011;41730;51.960;20.158;2022-09-03T12:47:11;4.30;;;1.40;;
55800;SDS011;41730;51.960;20.158;2022-09-03T12:50:06;2.60;;;1.30;;
55800;SDS011;41730;51.960;20.158;2022-09-03T12:52:40;3.60;;;1.50;;
55800;SDS011;41730;51.960;20.158;2022-09-03T12:55:19;3.00;;;1.30;;
55800;SDS011;41730;51.960;20.158;2022-09-03T12:58:01;2.30;;;1.10;;
55800;SDS011;41730;51.960;20.158;2022-09-03T13:00:42;3.80;;;1.60;;
55800;SDS011;41730;51.960;20.158;2022-09-03T13:03:20;2.20;;;1.30;;
55800;SDS011;41730;51.960;20.158;2022-09-03T13:05:55;3.00;;;1.30;;
55800;SDS011;41730;51.960;20.158;2022-09-03T13:08:30;3.00;;;1.30;;
55800;SDS011;41730;51.960;20.158;2022-09-03T13:11:07;3.10;;;1.30;;
55800;SDS011;41730;51.960;20.158;2022-09-03T13:13:47;2.90;;;1.20;;
55800;SDS011;41730;51.960;20.158;2022-09-03T13:16:33;2.20;;;1.10;;
55800;SDS011;41730;51.960;20.158;2022-09-03T13:19:42;4.90;;;1.10;;
55800;SDS011;41730;51.960;20.158;2022-09-03T13:22:29;1.70;;;1.00;;
55800;SDS011;41730;51.960;20.158;2022-09-03T13:25:11;4.10;;;1.30;;
55800;SDS011;41730;51.960;20.158;2022-09-03T13:27:53;2.30;;;1.10;;
55800;SDS011;41730;51.960;20.158;2022-09-03T13:30:37;2.80;;;1.10;;
55800;SDS011;41730;51.960;20.158;2022-09-03T13:33:21;3.90;;;1.10;;
55800;SDS011;41730;51.960;20.158;2022-09-03T13:36:01;3.30;;;1.10;;
55800;SDS011;41730;51.960;20.158;2022-09-03T13:38:38;2.50;;;1.20;;
55800;SDS011;41730;51.960;20.158;2022-09-03T13:41:15;2.30;;;1.10;;
55800;SDS011;41730;51.960;20.158;2022-09-03T13:44:05;4.30;;;1.30;;
55800;SDS011;41730;51.960;20.158;2022-09-03T13:46:41;3.70;;;1.20;;
55800;SDS011;41730;51.960;20.158;2022-09-03T13:49:20;2.80;;;1.30;;
55800;SDS011;41730;51.960;20.158;2022-09-03T13:52:33;2.50;;;1.10;;
55800;SDS011;41730;51.960;20.158;2022-09-03T13:55:11;2.60;;;1.30;;
55800;SDS011;41730;51.960;20.158;2022-09-03T13:57:50;3.50;;;1.30;;
55800;SDS011;41730;51.960;20.158;2022-09-03T14:00:30;2.60;;;1.10;;
55800;SDS011;41730;51.960;20.158;2022-09-03T14:03:09;2.30;;;1.10;;
55800;SDS011;41730;51.960;20.158;2022-09-03T14:06:04;5.70;;;1.20;;
55800;SDS011;41730;51.960;20.158;2022-09-03T14:08:44;4.90;;;1.10;;
55800;SDS011;41730;51.960;20.158;2022-09-03T14:11:29;3.80;;;1.40;;
55800;SDS011;41730;51.960;20.158;2022-09-03T14:14:11;4.30;;;1.10;;
55800;SDS011;41730;51.960;20.158;2022-09-03T14:16:53;2.10;;;1.20;;
55800;SDS011;41730;51.960;20.158;2022-09-03T14:19:33;2.30;;;1.30;;
55800;SDS011;41730;51.960;20.158;2022-09-03T14:22:12;2.70;;;1.10;;
55800;SDS011;41730;51.960;20.158;2022-09-03T14:24:50;3.20;;;1.00;;
55800;SDS011;41730;51.960;20.158;2022-09-03T14:27:25;2.30;;;1.10;;
55800;SDS011;41730;51.960;20.158;2022-09-03T14:29:59;3.00;;;1.30;;
55800;SDS011;41730;51.960;20.158;2022-09-03T14:32:39;3.40;;;1.10;;
55800;SDS011;41730;51.960;20.158;2022-09-03T14:35:30;3.60;;;1.10;;
55800;SDS011;41730;51.960;20.158;2022-09-03T14:40:55;4.30;;;1.10;;
55800;SDS011;41730;51.960;20.158;2022-09-03T14:46:54;3.20;;;1.00;;
55800;SDS011;41730;51.960;20.158;2022-09-03T14:49:48;2.90;;;1.20;;
55800;SDS011;41730;51.960;20.158;2022-09-03T14:55:53;3.70;;;1.00;;
55800;SDS011;41730;51.960;20.158;2022-09-03T14:58:37;3.60;;;1.00;;
55800;SDS011;41730;51.960;20.158;2022-09-03T15:01:17;2.80;;;1.10;;
55800;SDS011;41730;51.960;20.158;2022-09-03T15:04:13;1.90;;;0.80;;
55800;SDS011;41730;51.960;20.158;2022-09-03T15:07:11;4.90;;;0.90;;
55800;SDS011;41730;51.960;20.158;2022-09-03T15:09:53;3.00;;;1.10;;
55800;SDS011;41730;51.960;20.158;2022-09-03T15:12:33;2.60;;;0.80;;
55800;SDS011;41730;51.960;20.158;2022-09-03T15:15:09;2.90;;;1.10;;
55800;SDS011;41730;51.960;20.158;2022-09-03T15:17:49;2.10;;;1.10;;
55800;SDS011;41730;51.960;20.158;2022-09-03T15:20:34;9.50;;;1.50;;
55800;SDS011;41730;51.960;20.158;2022-09-03T15:23:41;3.20;;;1.20;;
55800;SDS011;41730;51.960;20.158;2022-09-03T15:26:34;4.40;;;1.20;;
55800;SDS011;41730;51.960;20.158;2022-09-03T15:29:32;2.90;;;1.40;;
55800;SDS011;41730;51.960;20.158;2022-09-03T15:32:17;4.00;;;1.50;;
55800;SDS011;41730;51.960;20.158;2022-09-03T15:35:03;2.80;;;1.20;;
55800;SDS011;41730;51.960;20.158;2022-09-03T15:37:43;3.00;;;1.10;;
55800;SDS011;41730;51.960;20.158;2022-09-03T15:40:21;3.00;;;1.00;;
55800;SDS011;41730;51.960;20.158;2022-09-03T15:42:59;2.90;;;0.90;;
55800;SDS011;41730;51.960;20.158;2022-09-03T15:45:39;2.70;;;1.10;;
55800;SDS011;41730;51.960;20.158;2022-09-03T15:48:29;3.50;;;1.30;;
55800;SDS011;41730;51.960;20.158;2022-09-03T15:51:11;3.80;;;1.20;;
55800;SDS011;41730;51.960;20.158;2022-09-03T15:53:52;2.20;;;1.30;;
55800;SDS011;41730;51.960;20.158;2022-09-03T15:56:33;5.00;;;1.20;;
55800;SDS011;41730;51.960;20.158;2022-09-03T15:59:09;3.10;;;1.00;;
55800;SDS011;41730;51.960;20.158;2022-09-03T16:01:49;2.90;;;1.30;;
55800;SDS011;41730;51.960;20.158;2022-09-03T16:04:38;3.80;;;1.40;;
55800;SDS011;41730;51.960;20.158;2022-09-03T16:07:22;4.70;;;1.20;;
55800;SDS011;41730;51.960;20.158;2022-09-03T16:10:09;2.80;;;1.00;;